sensor_id;sensor_type;location;lat;lon;timestamp;pressure;altitude;pressure_sealevel;temperature;humidity
29121;BME280;16191;49.548;8.658;2023-05-29T00:02:02;100462.59;;;17.88;51.37
29121;BME280;16191;49.548;8.658;2023-05-29T00:04:29;100462.41;;;17.91;51.09
29121;BME280;16191;49.548;8.658;2023-05-29T00:06:56;100462.28;;;17.92;50.83
29121;BME280;16191;49.548;8.658;2023-05-29T00:09:23;100464.28;;;17.89;50.89
29121;BME280;16191;49.548;8.658;2023-05-29T00:11:49;100462.06;;;17.83;51.03
29121;BME280;16191;49.548;8.658;2023-05-29T00:14:19;100467.72;;;17.76;51.22
29121;BME280;16191;49.548;8.658;2023-05-29T00:16:46;100470.28;;;17.78;51.07
29121;BME280;16191;49.548;8.658;2023-05-29T00:19:16;100464.91;;;17.79;51.04
29121;BME280;16191;49.548;8.658;2023-05-29T00:21:43;100458.78;;;17.79;51.02
29121;BME280;16191;49.548;8.658;2023-05-29T00:24:10;100449.69;;;17.70;50.93
29121;BME280;16191;49.548;8.658;2023-05-29T00:26:36;100458.13;;;17.75;51.05
29121;BME280;16191;49.548;8.658;2023-05-29T00:29:03;100462.59;;;17.75;50.62
29121;BME280;16191;49.548;8.658;2023-05-29T00:31:32;100449.25;;;17.76;50.78
29121;BME280;16191;49.548;8.658;2023-05-29T00:33:58;100447.56;;;17.75;50.56
29121;BME280;16191;49.548;8.658;2023-05-29T00:36:25;100452.53;;;17.67;50.63
29121;BME280;16191;49.548;8.658;2023-05-29T00:38:52;100452.75;;;17.64;50.96
29121;BME280;16191;49.548;8.658;2023-05-29T00:41:19;100453.00;;;17.60;50.88
29121;BME280;16191;49.548;8.658;2023-05-29T00:43:45;100449.09;;;17.53;50.97
29121;BME280;16191;49.548;8.658;2023-05-29T00:46:13;100441.69;;;17.58;50.66
29121;BME280;16191;49.548;8.658;2023-05-29T00:48:43;100446.88;;;17.59;50.72
29121;BME280;16191;49.548;8.658;2023-05-29T00:51:11;100443.50;;;17.57;50.34
29121;BME280;16191;49.548;8.658;2023-05-29T00:53:40;100447.94;;;17.57;50.48
29121;BME280;16191;49.548;8.658;2023-05-29T00:56:08;100442.03;;;17.53;50.54
29121;BME280;16191;49.548;8.658;2023-05-29T00:58:36;100443.69;;;17.54;50.50
29121;BME280;16191;49.548;8.658;2023-05-29T01:01:03;100435.47;;;17.59;50.23
29121;BME280;16191;49.548;8.658;2023-05-29T01:03:31;100437.91;;;17.49;50.83
29121;BME280;16191;49.548;8.658;2023-05-29T01:06:00;100441.59;;;17.46;51.00
29121;BME280;16191;49.548;8.658;2023-05-29T01:08:47;100447.06;;;17.43;51.16
29121;BME280;16191;49.548;8.658;2023-05-29T01:11:50;100445.06;;;17.47;50.92
29121;BME280;16191;49.548;8.658;2023-05-29T01:20:37;100443.88;;;17.38;50.76
29121;BME280;16191;49.548;8.658;2023-05-29T01:26:11;100438.69;;;17.37;50.93
29121;BME280;16191;49.548;8.658;2023-05-29T01:28:47;100438.75;;;17.23;51.82
29121;BME280;16191;49.548;8.658;2023-05-29T01:31:23;100440.75;;;17.19;52.00
29121;BME280;16191;49.548;8.658;2023-05-29T01:33:54;100443.03;;;17.11;52.32
29121;BME280;16191;49.548;8.658;2023-05-29T01:36:22;100436.91;;;17.10;52.20
29121;BME280;16191;49.548;8.658;2023-05-29T01:38:50;100443.09;;;16.97;53.02
29121;BME280;16191;49.548;8.658;2023-05-29T01:41:18;100445.25;;;16.90;52.61
29121;BME280;16191;49.548;8.658;2023-05-29T01:43:46;100447.59;;;16.95;52.80
29121;BME280;16191;49.548;8.658;2023-05-29T01:46:14;100446.59;;;16.83;53.62
29121;BME280;16191;49.548;8.658;2023-05-29T01:48:42;100451.69;;;16.72;54.02
29121;BME280;16191;49.548;8.658;2023-05-29T01:51:09;100447.19;;;16.74;54.38
29121;BME280;16191;49.548;8.658;2023-05-29T01:53:40;100453.78;;;16.67;54.60
29121;BME280;16191;49.548;8.658;2023-05-29T01:56:08;100458.75;;;16.57;54.94
29121;BME280;16191;49.548;8.658;2023-05-29T01:58:36;100464.53;;;16.64;55.00
29121;BME280;16191;49.548;8.658;2023-05-29T02:01:06;100459.88;;;16.39;55.87
29121;BME280;16191;49.548;8.658;2023-05-29T02:03:34;100463.53;;;16.51;55.54
29121;BME280;16191;49.548;8.658;2023-05-29T02:06:01;100457.53;;;16.34;55.64
29121;BME280;16191;49.548;8.658;2023-05-29T02:08:28;100461.09;;;16.19;56.52
29121;BME280;16191;49.548;8.658;2023-05-29T02:10:55;100458.00;;;16.27;56.33
29121;BME280;16191;49.548;8.658;2023-05-29T02:13:22;100461.69;;;16.38;55.83
29121;BME280;16191;49.548;8.658;2023-05-29T02:15:49;100459.69;;;16.42;55.20
29121;BME280;16191;49.548;8.658;2023-05-29T02:18:16;100457.34;;;16.52;54.85
29121;BME280;16191;49.548;8.658;2023-05-29T02:20:46;100458.38;;;16.49;54.73
29121;BME280;16191;49.548;8.658;2023-05-29T02:23:21;100463.09;;;16.44;54.96
29121;BME280;16191;49.548;8.658;2023-05-29T02:25:49;100458.84;;;16.41;54.61
29121;BME280;16191;49.548;8.658;2023-05-29T02:28:16;100459.97;;;16.37;54.86
29121;BME280;16191;49.548;8.658;2023-05-29T02:30:43;100461.94;;;16.34;55.03
29121;BME280;16191;49.548;8.658;2023-05-29T02:33:09;100463.56;;;16.36;54.72
29121;BME280;16191;49.548;8.658;2023-05-29T02:35:36;100462.97;;;16.31;54.94
29121;BME280;16191;49.548;8.658;2023-05-29T02:38:03;100464.41;;;16.23;55.53
29121;BME280;16191;49.548;8.658;2023-05-29T02:40:30;100467.56;;;15.99;56.72
29121;BME280;16191;49.548;8.658;2023-05-29T02:42:57;100471.41;;;16.08;56.29
29121;BME280;16191;49.548;8.658;2023-05-29T02:45:24;100470.84;;;16.03;56.57
29121;BME280;16191;49.548;8.658;2023-05-29T02:47:50;100466.34;;;16.05;56.63
29121;BME280;16191;49.548;8.658;2023-05-29T02:50:17;100460.69;;;15.97;56.98
29121;BME280;16191;49.548;8.658;2023-05-29T02:52:43;100459.59;;;16.01;56.55
29121;BME280;16191;49.548;8.658;2023-05-29T02:55:10;100465.56;;;16.03;56.23
29121;BME280;16191;49.548;8.658;2023-05-29T02:57:37;100466.72;;;15.99;55.94
29121;BME280;16191;49.548;8.658;2023-05-29T03:00:04;100469.22;;;15.86;56.27
29121;BME280;16191;49.548;8.658;2023-05-29T03:02:34;100466.31;;;15.91;55.96
29121;BME280;16191;49.548;8.658;2023-05-29T03:05:02;100467.25;;;15.90;56.22
29121;BME280;16191;49.548;8.658;2023-05-29T03:07:29;100468.75;;;15.80;56.95
29121;BME280;16191;49.548;8.658;2023-05-29T03:09:55;100462.81;;;15.76;57.19
29121;BME280;16191;49.548;8.658;2023-05-29T03:12:25;100467.59;;;15.69;57.80
29121;BME280;16191;49.548;8.658;2023-05-29T03:14:54;100462.44;;;15.52;58.69
29121;BME280;16191;49.548;8.658;2023-05-29T03:17:23;100466.16;;;15.48;58.96
29121;BME280;16191;49.548;8.658;2023-05-29T03:19:49;100470.56;;;15.48;59.09
29121;BME280;16191;49.548;8.658;2023-05-29T03:22:17;100473.56;;;15.41;59.68
29121;BME280;16191;49.548;8.658;2023-05-29T03:24:44;100471.78;;;15.42;59.32
29121;BME280;16191;49.548;8.658;2023-05-29T03:27:12;100472.13;;;15.36;59.84
29121;BME280;16191;49.548;8.658;2023-05-29T03:29:40;100479.44;;;15.31;60.06
29121;BME280;16191;49.548;8.658;2023-05-29T03:32:07;100477.75;;;15.30;60.52
29121;BME280;16191;49.548;8.658;2023-05-29T03:34:34;100472.81;;;15.24;60.73
29121;BME280;16191;49.548;8.658;2023-05-29T03:37:02;100479.84;;;15.23;61.01
29121;BME280;16191;49.548;8.658;2023-05-29T03:39:30;100481.81;;;15.20;61.05
29121;BME280;16191;49.548;8.658;2023-05-29T03:41:57;100474.28;;;15.14;61.63
29121;BME280;16191;49.548;8.658;2023-05-29T03:44:24;100475.97;;;14.99;62.06
29121;BME280;16191;49.548;8.658;2023-05-29T03:46:51;100479.19;;;14.88;63.38
29121;BME280;16191;49.548;8.658;2023-05-29T03:49:18;100482.91;;;14.84;64.33
29121;BME280;16191;49.548;8.658;2023-05-29T03:51:45;100478.84;;;14.79;65.00
29121;BME280;16191;49.548;8.658;2023-05-29T03:54:13;100478.50;;;14.85;64.86
29121;BME280;16191;49.548;8.658;2023-05-29T03:56:39;100487.09;;;14.88;65.14
29121;BME280;16191;49.548;8.658;2023-05-29T03:59:07;100496.66;;;14.89;64.34
29121;BME280;16191;49.548;8.658;2023-05-29T04:01:34;100492.34;;;14.88;64.48
29121;BME280;16191;49.548;8.658;2023-05-29T04:04:01;100507.34;;;14.86;65.09
29121;BME280;16191;49.548;8.658;2023-05-29T04:06:28;100497.06;;;14.82;65.58
29121;BME280;16191;49.548;8.658;2023-05-29T04:08:56;100503.34;;;14.79;65.65
29121;BME280;16191;49.548;8.658;2023-05-29T04:11:22;100501.63;;;14.78;66.15
29121;BME280;16191;49.548;8.658;2023-05-29T04:13:49;100502.06;;;14.70;66.95
29121;BME280;16191;49.548;8.658;2023-05-29T04:16:16;100510.88;;;14.69;67.69
29121;BME280;16191;49.548;8.658;2023-05-29T04:18:43;100510.28;;;14.80;67.11
29121;BME280;16191;49.548;8.658;2023-05-29T04:21:10;100524.03;;;14.85;67.15
29121;BME280;16191;49.548;8.658;2023-05-29T04:23:37;100532.84;;;14.84;66.56
29121;BME280;16191;49.548;8.658;2023-05-29T04:26:04;100530.53;;;14.78;67.87
29121;BME280;16191;49.548;8.658;2023-05-29T04:28:33;100540.09;;;14.79;68.04
29121;BME280;16191;49.548;8.658;2023-05-29T04:30:59;100542.50;;;14.84;67.01
29121;BME280;16191;49.548;8.658;2023-05-29T04:33:27;100544.19;;;14.85;66.76
29121;BME280;16191;49.548;8.658;2023-05-29T04:35:56;100552.84;;;14.87;66.60
29121;BME280;16191;49.548;8.658;2023-05-29T04:38:23;100547.34;;;14.91;66.27
29121;BME280;16191;49.548;8.658;2023-05-29T04:40:53;100548.00;;;14.95;67.29
29121;BME280;16191;49.548;8.658;2023-05-29T04:43:25;100556.50;;;15.00;67.03
29121;BME280;16191;49.548;8.658;2023-05-29T04:46:02;100553.88;;;15.00;67.58
29121;BME280;16191;49.548;8.658;2023-05-29T04:48:32;100562.69;;;14.99;67.67
29121;BME280;16191;49.548;8.658;2023-05-29T04:50:59;100557.94;;;15.05;66.77
29121;BME280;16191;49.548;8.658;2023-05-29T04:53:26;100561.75;;;15.16;66.06
29121;BME280;16191;49.548;8.658;2023-05-29T04:55:53;100566.94;;;15.17;65.68
29121;BME280;16191;49.548;8.658;2023-05-29T04:58:20;100567.47;;;15.24;65.94
29121;BME280;16191;49.548;8.658;2023-05-29T05:00:49;100570.69;;;15.29;66.59
29121;BME280;16191;49.548;8.658;2023-05-29T05:03:15;100572.78;;;15.38;66.33
29121;BME280;16191;49.548;8.658;2023-05-29T05:05:43;100582.38;;;15.39;65.98
29121;BME280;16191;49.548;8.658;2023-05-29T05:08:10;100584.69;;;15.45;66.86
29121;BME280;16191;49.548;8.658;2023-05-29T05:10:38;100583.13;;;15.58;66.28
29121;BME280;16191;49.548;8.658;2023-05-29T05:13:05;100583.59;;;15.65;65.70
29121;BME280;16191;49.548;8.658;2023-05-29T05:15:35;100587.84;;;15.67;65.69
29121;BME280;16191;49.548;8.658;2023-05-29T05:18:01;100579.59;;;15.73;65.48
29121;BME280;16191;49.548;8.658;2023-05-29T05:20:29;100593.44;;;15.77;64.31
29121;BME280;16191;49.548;8.658;2023-05-29T05:22:58;100584.31;;;15.83;64.22
29121;BME280;16191;49.548;8.658;2023-05-29T05:25:26;100596.47;;;15.85;64.65
29121;BME280;16191;49.548;8.658;2023-05-29T05:27:52;100588.13;;;15.93;63.61
29121;BME280;16191;49.548;8.658;2023-05-29T05:30:20;100593.06;;;15.99;63.81
29121;BME280;16191;49.548;8.658;2023-05-29T05:32:48;100581.91;;;16.09;64.65
29121;BME280;16191;49.548;8.658;2023-05-29T05:35:15;100592.44;;;16.09;63.92
29121;BME280;16191;49.548;8.658;2023-05-29T05:37:42;100589.44;;;16.16;64.38
29121;BME280;16191;49.548;8.658;2023-05-29T05:40:10;100594.16;;;16.25;64.43
29121;BME280;16191;49.548;8.658;2023-05-29T05:42:47;100590.41;;;16.29;64.74
29121;BME280;16191;49.548;8.658;2023-05-29T05:45:14;100594.47;;;16.34;65.13
29121;BME280;16191;49.548;8.658;2023-05-29T05:47:41;100600.22;;;16.41;63.81
29121;BME280;16191;49.548;8.658;2023-05-29T05:50:08;100600.53;;;16.51;63.52
29121;BME280;16191;49.548;8.658;2023-05-29T05:52:35;100605.53;;;16.55;63.54
29121;BME280;16191;49.548;8.658;2023-05-29T05:55:01;100606.94;;;16.61;62.78
29121;BME280;16191;49.548;8.658;2023-05-29T05:57:29;100606.03;;;16.76;62.61
29121;BME280;16191;49.548;8.658;2023-05-29T06:00:03;100609.25;;;16.81;61.29
29121;BME280;16191;49.548;8.658;2023-05-29T06:02:42;100606.78;;;16.92;61.02
29121;BME280;16191;49.548;8.658;2023-05-29T06:05:16;100606.16;;;17.03;59.94
29121;BME280;16191;49.548;8.658;2023-05-29T06:07:43;100608.88;;;17.01;60.10
29121;BME280;16191;49.548;8.658;2023-05-29T06:10:10;100605.66;;;17.10;60.51
29121;BME280;16191;49.548;8.658;2023-05-29T06:12:37;100606.88;;;17.19;59.96
29121;BME280;16191;49.548;8.658;2023-05-29T06:15:14;100605.66;;;17.25;59.34
29121;BME280;16191;49.548;8.658;2023-05-29T06:17:41;100612.25;;;17.18;58.03
29121;BME280;16191;49.548;8.658;2023-05-29T06:20:08;100618.63;;;17.42;59.42
29121;BME280;16191;49.548;8.658;2023-05-29T06:22:37;100615.94;;;17.56;58.00
29121;BME280;16191;49.548;8.658;2023-05-29T06:25:04;100613.13;;;17.73;58.75
29121;BME280;16191;49.548;8.658;2023-05-29T06:27:34;100611.06;;;17.64;56.77
29121;BME280;16191;49.548;8.658;2023-05-29T06:30:01;100618.75;;;17.81;57.91
29121;BME280;16191;49.548;8.658;2023-05-29T06:32:29;100612.50;;;17.97;56.88
29121;BME280;16191;49.548;8.658;2023-05-29T06:34:57;100619.28;;;17.87;55.66
29121;BME280;16191;49.548;8.658;2023-05-29T06:37:24;100617.34;;;18.03;56.49
29121;BME280;16191;49.548;8.658;2023-05-29T06:39:51;100611.06;;;18.18;56.26
29121;BME280;16191;49.548;8.658;2023-05-29T06:42:17;100612.03;;;18.42;56.47
29121;BME280;16191;49.548;8.658;2023-05-29T06:44:44;100612.63;;;18.60;56.02
29121;BME280;16191;49.548;8.658;2023-05-29T06:47:10;100607.75;;;18.67;55.48
29121;BME280;16191;49.548;8.658;2023-05-29T06:49:37;100615.47;;;18.70;55.39
29121;BME280;16191;49.548;8.658;2023-05-29T06:52:04;100613.38;;;18.75;55.23
29121;BME280;16191;49.548;8.658;2023-05-29T06:54:50;100619.81;;;18.71;54.39
29121;BME280;16191;49.548;8.658;2023-05-29T06:57:17;100616.84;;;18.88;54.46
29121;BME280;16191;49.548;8.658;2023-05-29T06:59:45;100620.03;;;18.93;54.90
29121;BME280;16191;49.548;8.658;2023-05-29T07:02:12;100619.63;;;18.99;55.24
29121;BME280;16191;49.548;8.658;2023-05-29T07:04:40;100613.75;;;19.20;55.82
29121;BME280;16191;49.548;8.658;2023-05-29T07:07:07;100616.19;;;19.10;55.31
29121;BME280;16191;49.548;8.658;2023-05-29T07:09:35;100623.88;;;19.38;54.86
29121;BME280;16191;49.548;8.658;2023-05-29T07:12:02;100619.19;;;19.55;54.57
29121;BME280;16191;49.548;8.658;2023-05-29T07:14:28;100617.28;;;19.69;52.91
29121;BME280;16191;49.548;8.658;2023-05-29T07:16:56;100626.53;;;19.75;52.60
29121;BME280;16191;49.548;8.658;2023-05-29T07:19:22;100616.91;;;19.98;53.60
29121;BME280;16191;49.548;8.658;2023-05-29T07:21:50;100618.81;;;19.96;51.58
29121;BME280;16191;49.548;8.658;2023-05-29T07:24:19;100622.72;;;20.03;52.32
29121;BME280;16191;49.548;8.658;2023-05-29T07:26:46;100626.66;;;20.21;51.97
29121;BME280;16191;49.548;8.658;2023-05-29T07:29:12;100625.28;;;20.39;50.56
29121;BME280;16191;49.548;8.658;2023-05-29T07:31:40;100626.81;;;20.66;50.43
29121;BME280;16191;49.548;8.658;2023-05-29T07:34:07;100633.28;;;20.62;49.88
29121;BME280;16191;49.548;8.658;2023-05-29T07:36:34;100626.22;;;20.73;48.72
29121;BME280;16191;49.548;8.658;2023-05-29T07:39:03;100625.16;;;20.76;49.02
29121;BME280;16191;49.548;8.658;2023-05-29T07:41:32;100628.41;;;20.91;48.75
29121;BME280;16191;49.548;8.658;2023-05-29T07:43:59;100628.53;;;21.00;47.96
29121;BME280;16191;49.548;8.658;2023-05-29T07:46:26;100631.19;;;21.11;48.15
29121;BME280;16191;49.548;8.658;2023-05-29T07:49:04;100625.44;;;21.29;50.03
29121;BME280;16191;49.548;8.658;2023-05-29T07:51:31;100631.78;;;21.48;48.70
29121;BME280;16191;49.548;8.658;2023-05-29T07:53:59;100636.38;;;21.46;47.29
29121;BME280;16191;49.548;8.658;2023-05-29T07:56:25;100632.88;;;21.57;48.57
29121;BME280;16191;49.548;8.658;2023-05-29T07:58:52;100627.50;;;21.79;48.75
29121;BME280;16191;49.548;8.658;2023-05-29T08:01:23;100627.47;;;21.90;47.04
29121;BME280;16191;49.548;8.658;2023-05-29T08:03:49;100629.53;;;21.87;47.58
29121;BME280;16191;49.548;8.658;2023-05-29T08:06:25;100635.38;;;22.13;47.37
29121;BME280;16191;49.548;8.658;2023-05-29T08:08:55;100635.84;;;22.29;47.14
29121;BME280;16191;49.548;8.658;2023-05-29T08:11:22;100636.38;;;22.33;47.18
29121;BME280;16191;49.548;8.658;2023-05-29T08:13:49;100626.53;;;22.23;44.98
29121;BME280;16191;49.548;8.658;2023-05-29T08:16:17;100632.34;;;22.49;45.27
29121;BME280;16191;49.548;8.658;2023-05-29T08:18:43;100626.56;;;22.65;44.62
29121;BME280;16191;49.548;8.658;2023-05-29T08:21:10;100635.72;;;22.72;45.23
29121;BME280;16191;49.548;8.658;2023-05-29T08:23:37;100624.16;;;22.83;45.26
29121;BME280;16191;49.548;8.658;2023-05-29T08:26:04;100628.03;;;23.00;44.43
29121;BME280;16191;49.548;8.658;2023-05-29T08:28:31;100633.91;;;22.94;43.73
29121;BME280;16191;49.548;8.658;2023-05-29T08:30:57;100627.59;;;22.95;42.60
29121;BME280;16191;49.548;8.658;2023-05-29T08:33:24;100628.41;;;23.16;44.37
29121;BME280;16191;49.548;8.658;2023-05-29T08:35:50;100623.69;;;23.39;42.16
29121;BME280;16191;49.548;8.658;2023-05-29T08:38:18;100620.56;;;23.54;41.63
29121;BME280;16191;49.548;8.658;2023-05-29T08:40:44;100617.06;;;23.64;42.03
29121;BME280;16191;49.548;8.658;2023-05-29T08:43:16;100617.09;;;23.92;42.37
29121;BME280;16191;49.548;8.658;2023-05-29T08:45:44;100619.75;;;23.92;40.33
29121;BME280;16191;49.548;8.658;2023-05-29T08:48:11;100614.72;;;24.28;40.64
29121;BME280;16191;49.548;8.658;2023-05-29T08:50:45;100625.53;;;24.17;40.90
29121;BME280;16191;49.548;8.658;2023-05-29T08:53:14;100619.94;;;24.30;39.62
29121;BME280;16191;49.548;8.658;2023-05-29T08:55:41;100615.03;;;24.35;38.15
29121;BME280;16191;49.548;8.658;2023-05-29T08:58:09;100612.22;;;24.46;38.72
29121;BME280;16191;49.548;8.658;2023-05-29T09:00:36;100616.94;;;24.62;38.97
29121;BME280;16191;49.548;8.658;2023-05-29T09:03:03;100608.25;;;24.59;39.36
29121;BME280;16191;49.548;8.658;2023-05-29T09:05:30;100613.75;;;25.05;38.91
29121;BME280;16191;49.548;8.658;2023-05-29T09:07:56;100616.06;;;25.17;38.11
29121;BME280;16191;49.548;8.658;2023-05-29T09:10:23;100616.59;;;25.31;38.85
29121;BME280;16191;49.548;8.658;2023-05-29T09:12:52;100620.00;;;25.50;38.29
29121;BME280;16191;49.548;8.658;2023-05-29T09:15:19;100633.72;;;25.65;37.72
29121;BME280;16191;49.548;8.658;2023-05-29T09:17:51;100621.88;;;25.68;37.25
29121;BME280;16191;49.548;8.658;2023-05-29T09:20:19;100621.44;;;26.08;35.69
29121;BME280;16191;49.548;8.658;2023-05-29T09:22:53;100622.19;;;25.82;35.71
29121;BME280;16191;49.548;8.658;2023-05-29T09:25:25;100618.25;;;25.86;34.49
29121;BME280;16191;49.548;8.658;2023-05-29T09:28:02;100610.00;;;26.15;34.94
29121;BME280;16191;49.548;8.658;2023-05-29T09:30:41;100620.63;;;26.69;34.87
29121;BME280;16191;49.548;8.658;2023-05-29T09:33:09;100613.28;;;26.96;33.95
29121;BME280;16191;49.548;8.658;2023-05-29T09:35:40;100615.34;;;27.03;34.73
29121;BME280;16191;49.548;8.658;2023-05-29T09:38:08;100621.38;;;26.79;33.47
29121;BME280;16191;49.548;8.658;2023-05-29T09:40:36;100618.19;;;27.01;33.88
29121;BME280;16191;49.548;8.658;2023-05-29T09:43:04;100620.56;;;26.86;34.22
29121;BME280;16191;49.548;8.658;2023-05-29T09:45:31;100618.94;;;27.19;33.36
29121;BME280;16191;49.548;8.658;2023-05-29T09:47:58;100623.13;;;27.22;33.17
29121;BME280;16191;49.548;8.658;2023-05-29T09:50:26;100620.09;;;27.17;33.40
29121;BME280;16191;49.548;8.658;2023-05-29T09:52:52;100623.81;;;27.24;33.32
29121;BME280;16191;49.548;8.658;2023-05-29T09:55:20;100623.06;;;27.48;33.49
29121;BME280;16191;49.548;8.658;2023-05-29T09:57:47;100620.56;;;27.54;31.60
29121;BME280;16191;49.548;8.658;2023-05-29T10:00:17;100613.34;;;27.47;32.80
29121;BME280;16191;49.548;8.658;2023-05-29T10:02:44;100617.72;;;26.88;32.24
29121;BME280;16191;49.548;8.658;2023-05-29T10:05:11;100615.63;;;27.25;32.95
29121;BME280;16191;49.548;8.658;2023-05-29T10:07:46;100603.63;;;27.54;32.58
29121;BME280;16191;49.548;8.658;2023-05-29T10:10:16;100609.84;;;27.54;32.33
29121;BME280;16191;49.548;8.658;2023-05-29T10:12:48;100613.50;;;27.53;31.98
29121;BME280;16191;49.548;8.658;2023-05-29T10:15:16;100608.06;;;27.63;32.92
29121;BME280;16191;49.548;8.658;2023-05-29T10:17:50;100620.13;;;27.75;32.53
29121;BME280;16191;49.548;8.658;2023-05-29T10:20:20;100607.09;;;27.88;31.62
29121;BME280;16191;49.548;8.658;2023-05-29T10:22:49;100618.00;;;28.19;31.58
29121;BME280;16191;49.548;8.658;2023-05-29T10:25:19;100608.25;;;27.94;30.30
29121;BME280;16191;49.548;8.658;2023-05-29T10:27:46;100614.13;;;27.97;31.18
29121;BME280;16191;49.548;8.658;2023-05-29T10:30:27;100617.34;;;28.09;30.41
29121;BME280;16191;49.548;8.658;2023-05-29T10:33:20;100615.31;;;28.92;29.45
29121;BME280;16191;49.548;8.658;2023-05-29T10:36:12;100599.03;;;28.94;29.42
29121;BME280;16191;49.548;8.658;2023-05-29T10:38:41;100608.53;;;29.05;30.23
29121;BME280;16191;49.548;8.658;2023-05-29T10:43:54;100606.75;;;29.44;28.13
29121;BME280;16191;49.548;8.658;2023-05-29T10:46:21;100604.06;;;29.67;28.95
29121;BME280;16191;49.548;8.658;2023-05-29T10:48:49;100604.28;;;29.65;28.85
29121;BME280;16191;49.548;8.658;2023-05-29T10:51:27;100599.16;;;29.71;28.34
29121;BME280;16191;49.548;8.658;2023-05-29T10:53:54;100592.69;;;30.11;26.99
29121;BME280;16191;49.548;8.658;2023-05-29T10:56:22;100586.59;;;30.17;27.31
29121;BME280;16191;49.548;8.658;2023-05-29T10:58:53;100601.03;;;29.70;28.12
29121;BME280;16191;49.548;8.658;2023-05-29T11:01:22;100589.03;;;29.81;27.53
29121;BME280;16191;49.548;8.658;2023-05-29T11:03:50;100588.78;;;29.90;28.34
29121;BME280;16191;49.548;8.658;2023-05-29T11:06:20;100598.94;;;29.57;28.33
29121;BME280;16191;49.548;8.658;2023-05-29T11:08:58;100600.53;;;29.66;28.83
29121;BME280;16191;49.548;8.658;2023-05-29T11:14:00;100582.94;;;29.87;27.35
29121;BME280;16191;49.548;8.658;2023-05-29T11:19:03;100599.91;;;29.64;27.70
29121;BME280;16191;49.548;8.658;2023-05-29T11:22:04;100591.59;;;29.97;27.83
29121;BME280;16191;49.548;8.658;2023-05-29T11:24:33;100589.53;;;29.53;28.32
29121;BME280;16191;49.548;8.658;2023-05-29T11:27:03;100597.63;;;29.76;28.16
29121;BME280;16191;49.548;8.658;2023-05-29T11:29:33;100588.09;;;30.34;26.70
29121;BME280;16191;49.548;8.658;2023-05-29T11:32:02;100584.56;;;30.19;26.98
29121;BME280;16191;49.548;8.658;2023-05-29T11:34:32;100593.66;;;30.18;27.73
29121;BME280;16191;49.548;8.658;2023-05-29T11:37:00;100592.63;;;29.42;28.43
29121;BME280;16191;49.548;8.658;2023-05-29T11:39:28;100592.06;;;30.46;27.65
29121;BME280;16191;49.548;8.658;2023-05-29T11:41:55;100593.59;;;30.93;27.51
29121;BME280;16191;49.548;8.658;2023-05-29T11:44:25;100586.47;;;31.15;27.46
29121;BME280;16191;49.548;8.658;2023-05-29T11:47:03;100586.34;;;31.38;27.21
29121;BME280;16191;49.548;8.658;2023-05-29T11:49:31;100577.84;;;31.41;26.63
29121;BME280;16191;49.548;8.658;2023-05-29T11:52:10;100584.69;;;30.92;26.81
29121;BME280;16191;49.548;8.658;2023-05-29T11:54:43;100586.81;;;30.82;26.95
29121;BME280;16191;49.548;8.658;2023-05-29T11:57:19;100572.22;;;31.21;26.93
29121;BME280;16191;49.548;8.658;2023-05-29T11:59:47;100572.13;;;30.99;26.53
29121;BME280;16191;49.548;8.658;2023-05-29T12:02:14;100576.84;;;31.27;26.33
29121;BME280;16191;49.548;8.658;2023-05-29T12:04:41;100571.09;;;31.30;25.94
29121;BME280;16191;49.548;8.658;2023-05-29T12:07:20;100585.41;;;31.01;26.03
29121;BME280;16191;49.548;8.658;2023-05-29T12:09:46;100579.78;;;31.47;25.28
29121;BME280;16191;49.548;8.658;2023-05-29T12:12:15;100578.34;;;30.56;26.67
29121;BME280;16191;49.548;8.658;2023-05-29T12:14:41;100580.38;;;31.78;25.41
29121;BME280;16191;49.548;8.658;2023-05-29T12:17:08;100571.84;;;31.24;24.70
29121;BME280;16191;49.548;8.658;2023-05-29T12:19:35;100553.53;;;31.34;25.54
29121;BME280;16191;49.548;8.658;2023-05-29T12:22:02;100567.50;;;31.59;24.93
29121;BME280;16191;49.548;8.658;2023-05-29T12:24:29;100567.88;;;31.41;24.88
29121;BME280;16191;49.548;8.658;2023-05-29T12:27:08;100569.81;;;32.04;24.04
29121;BME280;16191;49.548;8.658;2023-05-29T12:29:35;100574.00;;;32.84;23.99
29121;BME280;16191;49.548;8.658;2023-05-29T12:32:02;100567.69;;;32.49;23.59
29121;BME280;16191;49.548;8.658;2023-05-29T12:34:34;100568.00;;;32.61;24.31
29121;BME280;16191;49.548;8.658;2023-05-29T12:37:07;100576.06;;;31.48;24.70
29121;BME280;16191;49.548;8.658;2023-05-29T12:39:40;100565.47;;;32.25;23.70
29121;BME280;16191;49.548;8.658;2023-05-29T12:42:06;100567.06;;;32.75;23.73
29121;BME280;16191;49.548;8.658;2023-05-29T12:44:34;100568.06;;;33.02;23.21
29121;BME280;16191;49.548;8.658;2023-05-29T12:47:00;100556.28;;;32.47;23.65
29121;BME280;16191;49.548;8.658;2023-05-29T12:49:27;100554.28;;;31.85;23.42
29121;BME280;16191;49.548;8.658;2023-05-29T12:52:04;100551.34;;;32.57;23.55
29121;BME280;16191;49.548;8.658;2023-05-29T12:54:31;100551.81;;;32.33;23.82
29121;BME280;16191;49.548;8.658;2023-05-29T12:56:58;100552.16;;;32.23;23.91
29121;BME280;16191;49.548;8.658;2023-05-29T12:59:27;100552.41;;;32.91;23.13
29121;BME280;16191;49.548;8.658;2023-05-29T13:01:54;100553.28;;;33.46;23.47
29121;BME280;16191;49.548;8.658;2023-05-29T13:04:21;100558.28;;;33.01;22.93
29121;BME280;16191;49.548;8.658;2023-05-29T13:06:48;100550.13;;;32.88;23.27
29121;BME280;16191;49.548;8.658;2023-05-29T13:09:15;100561.66;;;32.75;24.11
29121;BME280;16191;49.548;8.658;2023-05-29T13:11:41;100561.97;;;33.34;23.12
29121;BME280;16191;49.548;8.658;2023-05-29T13:14:08;100542.13;;;33.88;22.72
29121;BME280;16191;49.548;8.658;2023-05-29T13:16:35;100542.44;;;34.91;22.41